Time,TemperatureF,DewpointF,PressureIn,WindDirection,WindDirectionDegrees,WindSpeedMPH,WindSpeedGustMPH,Humidity,HourlyPrecipIn,Conditions,Clouds,dailyrainin,SoftwareType,DateUTC
2013-04-23 00:00:00,47.5,37.5,29.99,South,177,0.0,0.0,68,0.00,,FEW250,0.00,VWS V14.01,2013-04-23 05:00:00,
2013-04-23 00:03:00,47.2,38.3,29.99,South,176,0.0,0.0,71,0.00,,BKN250,0.00,VWS V14.01,2013-04-23 05:03:00,
2013-04-23 00:05:00,47.0,38.5,29.99,South,177,0.0,0.0,72,0.00,,FEW250,0.00,VWS V14.01,2013-04-23 05:05:00,
2013-04-23 00:08:00,46.3,38.5,29.99,South,177,0.0,0.0,74,0.00,,BKN250,0.00,VWS V14.01,2013-04-23 05:08:00,
2013-04-23 00:10:00,46.2,38.7,29.98,South,176,0.0,0.0,75,0.00,,FEW250,0.00,VWS V14.01,2013-04-23 05:10:00,
2013-04-23 00:13:00,45.3,38.5,29.98,South,176,0.0,0.0,77,0.00,,BKN250,0.00,VWS V14.01,2013-04-23 05:13:00,
2013-04-23 00:15:00,45.2,38.8,29.98,South,176,0.0,0.0,78,0.00,,FEW250,0.00,VWS V14.01,2013-04-23 05:15:00,
2013-04-23 00:18:00,44.7,38.6,29.98,North,360,0.0,0.0,79,0.00,,BKN250,0.00,VWS V14.01,2013-04-23 05:18:00,
2013-04-23 00:20:00,44.7,38.6,29.98,North,360,0.0,0.0,79,0.00,,FEW250,0.00,VWS V14.01,2013-04-23 05:20:00,
2013-04-23 00:23:00,44.6,38.5,29.98,SSE,153,0.0,0.0,79,0.00,,BKN250,0.00,VWS V14.01,2013-04-23 05:23:00,
2013-04-23 00:25:00,44.6,38.5,29.98,SSE,153,0.0,0.0,79,0.00,,FEW250,0.00,VWS V14.01,2013-04-23 05:25:00,
2013-04-23 00:28:00,44.5,38.7,29.98,SSE,153,0.0,0.0,80,0.00,,BKN250,0.00,VWS V14.01,2013-04-23 05:28:00,
2013-04-23 00:30:00,44.5,38.7,29.98,SSE,153,0.0,0.0,80,0.00,,FEW250,0.00,VWS V14.01,2013-04-23 05:30:00,
2013-04-23 00:33:00,44.2,39.1,29.98,SSE,153,0.0,0.0,82,0.00,,BKN250,0.00,VWS V14.01,2013-04-23 05:33:00,
2013-04-23 00:35:00,44.2,39.1,29.98,SSE,153,0.0,0.0,82,0.00,,FEW250,0.00,VWS V14.01,2013-04-23 05:35:00,
2013-04-23 00:38:00,44.0,38.9,29.97,SSE,153,0.0,0.0,82,0.00,,BKN250,0.00,VWS V14.01,2013-04-23 05:38:00,
2013-04-23 00:40:00,44.0,38.9,29.97,SSE,153,0.0,0.0,82,0.00,,FEW250,0.00,VWS V14.01,2013-04-23 05:40:00,
2013-04-23 00:43:00,43.8,39.0,29.97,SSE,153,0.0,0.0,83,0.00,,BKN250,0.00,VWS V14.01,2013-04-23 05:43:00,
2013-04-23 00:45:00,43.9,39.1,29.97,SSE,153,0.0,0.0,83,0.00,,FEW250,0.00,VWS V14.01,2013-04-23 05:45:00,
2013-04-23 00:49:00,44.0,39.2,29.97,SSE,153,0.0,0.0,83,0.00,,BKN250,0.00,VWS V14.01,2013-04-23 05:49:00,
2013-04-23 00:50:00,44.0,39.2,29.97,SSE,153,0.0,0.0,83,0.00,,FEW250,0.00,VWS V14.01,2013-04-23 05:50:00,
2013-04-23 00:54:00,44.3,38.8,29.97,SSE,153,0.0,0.0,81,0.00,,BKN250,0.00,VWS V14.01,2013-04-23 05:54:00,
2013-04-23 00:55:00,44.3,38.8,29.97,SSE,153,0.0,0.0,81,0.00,,FEW250,0.00,VWS V14.01,2013-04-23 05:55:00,
2013-04-23 00:59:00,44.8,39.0,29.96,SSE,153,0.0,0.0,80,0.00,,BKN250,0.00,VWS V14.01,2013-04-23 05:59:00,
2013-04-23 01:00:00,44.8,39.0,29.96,SSE,153,0.0,0.0,80,0.00,,FEW250,0.00,VWS V14.01,2013-04-23 06:00:00,
2013-04-23 01:04:00,44.9,39.1,29.96,SSE,153,0.0,0.0,80,0.00,,OVC200,0.00,VWS V14.01,2013-04-23 06:04:00,
2013-04-23 01:05:00,44.9,39.1,29.96,SSE,153,0.0,0.0,80,0.00,,FEW250,0.00,VWS V14.01,2013-04-23 06:05:00,
2013-04-23 01:09:00,45.2,39.1,29.96,SSE,153,0.0,1.0,79,0.00,,OVC200,0.00,VWS V14.01,2013-04-23 06:09:00,
2013-04-23 01:10:00,45.2,39.1,29.96,SSE,153,0.0,1.0,79,0.00,,FEW250,0.00,VWS V14.01,2013-04-23 06:10:00,
2013-04-23 01:14:00,45.4,39.3,29.95,SSE,162,0.0,0.0,79,0.00,,OVC200,0.00,VWS V14.01,2013-04-23 06:14:00,
2013-04-23 01:15:00,45.4,39.3,29.95,SSE,162,0.0,0.0,79,0.00,,FEW250,0.00,VWS V14.01,2013-04-23 06:15:00,
2013-04-23 01:19:00,45.2,39.1,29.95,ESE,107,0.0,0.0,79,0.00,,OVC200,0.00,VWS V14.01,2013-04-23 06:19:00,
2013-04-23 01:20:00,45.2,39.1,29.95,ESE,107,0.0,0.0,79,0.00,,FEW250,0.00,VWS V14.01,2013-04-23 06:20:00,
2013-04-23 01:24:00,45.1,39.3,29.95,ESE,111,0.0,0.0,80,0.00,,OVC200,0.00,VWS V14.01,2013-04-23 06:24:00,
2013-04-23 01:25:00,45.1,39.3,29.95,ESE,111,0.0,0.0,80,0.00,,FEW250,0.00,VWS V14.01,2013-04-23 06:25:00,
2013-04-23 01:29:00,45.0,39.2,29.95,ESE,118,3.0,3.0,80,0.00,,OVC200,0.00,VWS V14.01,2013-04-23 06:29:00,
2013-04-23 01:30:00,45.1,39.3,29.95,ESE,117,0.0,1.0,80,0.00,,FEW250,0.00,VWS V14.01,2013-04-23 06:30:00,
2013-04-23 01:34:00,44.7,39.2,29.94,SE,134,3.0,3.0,81,0.00,,OVC200,0.00,VWS V14.01,2013-04-23 06:34:00,
2013-04-23 01:35:00,44.7,39.2,29.94,ESE,120,0.0,3.0,81,0.00,,FEW250,0.00,VWS V14.01,2013-04-23 06:35:00,
2013-04-23 01:39:00,45.4,39.6,29.94,SE,146,0.0,5.0,80,0.00,,OVC200,0.00,VWS V14.01,2013-04-23 06:39:00,
2013-04-23 01:40:00,45.3,39.5,29.94,SE,146,0.0,5.0,80,0.00,,FEW250,0.00,VWS V14.01,2013-04-23 06:40:00,
2013-04-23 01:44:00,46.2,39.7,29.94,SSE,151,0.0,0.0,78,0.00,,OVC200,0.00,VWS V14.01,2013-04-23 06:44:00,
2013-04-23 01:45:00,46.1,39.6,29.94,SSE,152,0.0,0.0,78,0.00,,FEW250,0.00,VWS V14.01,2013-04-23 06:45:00,
2013-04-23 01:49:00,46.6,39.8,29.94,SSE,151,0.0,0.0,77,0.00,,OVC200,0.00,VWS V14.01,2013-04-23 06:49:00,
2013-04-23 01:50:00,46.5,39.7,29.94,SSE,151,0.0,0.0,77,0.00,,FEW250,0.00,VWS V14.01,2013-04-23 06:50:00,
2013-04-23 01:54:00,46.9,39.4,29.94,North,360,0.0,4.0,75,0.00,,OVC200,0.00,VWS V14.01,2013-04-23 06:54:00,
2013-04-23 01:55:00,46.8,39.7,29.94,North,360,0.0,4.0,76,0.00,,FEW250,0.00,VWS V14.01,2013-04-23 06:55:00,
2013-04-23 01:59:00,47.5,39.6,29.94,South,173,0.0,0.0,74,0.00,,OVC200,0.00,VWS V14.01,2013-04-23 06:59:00,
2013-04-23 02:00:00,47.4,39.5,29.94,South,173,0.0,0.0,74,0.00,,FEW250,0.00,VWS V14.01,2013-04-23 07:00:00,
2013-04-23 02:05:00,47.9,40.0,29.94,North,360,0.0,0.0,74,0.00,,OVC180,0.00,VWS V14.01,2013-04-23 07:05:00,
2013-04-23 02:10:00,47.5,39.6,29.93,South,188,0.0,1.0,74,0.00,,OVC180,0.00,VWS V14.01,2013-04-23 07:10:00,
2013-04-23 02:15:00,48.5,39.5,29.93,SSW,212,0.0,5.0,71,0.00,,OVC180,0.00,VWS V14.01,2013-04-23 07:15:00,
2013-04-23 02:20:00,49.3,39.2,29.93,South,190,0.0,7.0,68,0.00,,OVC180,0.00,VWS V14.01,2013-04-23 07:20:00,
2013-04-23 02:25:00,49.7,39.2,29.93,SW,215,0.0,0.0,67,0.00,,OVC180,0.00,VWS V14.01,2013-04-23 07:25:00,
2013-04-23 02:30:00,49.7,39.2,29.93,SSW,202,0.0,0.0,67,0.00,,OVC180,0.00,VWS V14.01,2013-04-23 07:30:00,
2013-04-23 02:35:00,49.7,39.2,29.92,SSW,202,0.0,0.0,67,0.00,,OVC180,0.00,VWS V14.01,2013-04-23 07:35:00,
2013-04-23 02:40:00,49.6,39.9,29.92,SSW,202,0.0,0.0,69,0.00,,OVC180,0.00,VWS V14.01,2013-04-23 07:40:00,
2013-04-23 02:45:00,49.1,39.4,29.91,SSW,202,0.0,0.0,69,0.00,,OVC180,0.00,VWS V14.01,2013-04-23 07:45:00,
2013-04-23 02:50:00,48.3,39.7,29.91,SSW,202,0.0,0.0,72,0.00,,OVC180,0.00,VWS V14.01,2013-04-23 07:50:00,
2013-04-23 02:55:00,47.6,39.4,29.91,SSW,202,0.0,0.0,73,0.00,,OVC180,0.00,VWS V14.01,2013-04-23 07:55:00,
2013-04-23 03:00:00,47.7,39.5,29.91,SSW,202,0.0,0.0,73,0.00,,OVC180,0.00,VWS V14.01,2013-04-23 08:00:00,
2013-04-23 03:05:00,47.6,40.8,29.93,WSW,257,5.0,9.0,77,0.00,,-RA,0.00,VWS V14.01,2013-04-23 08:05:00,
2013-04-23 03:10:00,46.8,40.3,29.92,West,263,0.0,9.0,78,0.00,,-RA,0.00,VWS V14.01,2013-04-23 08:10:00,
2013-04-23 03:15:00,46.9,40.4,29.92,WSW,257,0.0,3.0,78,0.00,,FEW250,0.00,VWS V14.01,2013-04-23 08:15:00,
2013-04-23 03:16:00,47.2,40.4,29.92,SW,223,0.0,7.0,77,0.00,,-RA,0.00,VWS V14.01,2013-04-23 08:16:00,
2013-04-23 03:20:00,48.8,40.9,29.92,North,360,9.0,11.0,74,0.00,,FEW250,0.00,VWS V14.01,2013-04-23 08:20:00,
2013-04-23 03:21:00,49.7,41.0,29.92,North,360,11.0,11.0,72,0.00,,-RA,0.00,VWS V14.01,2013-04-23 08:21:00,
2013-04-23 03:25:00,50.8,41.0,29.92,SSW,196,6.0,11.0,69,0.00,,FEW250,0.00,VWS V14.01,2013-04-23 08:25:00,
2013-04-23 03:26:00,51.4,41.2,29.92,SSW,209,6.0,11.0,68,0.00,,-RA,0.00,VWS V14.01,2013-04-23 08:26:00,
2013-04-23 03:30:00,51.9,41.3,29.91,SSW,193,5.0,11.0,67,0.00,,FEW250,0.00,VWS V14.01,2013-04-23 08:30:00,
2013-04-23 03:31:00,52.1,41.5,29.91,SSW,202,3.0,11.0,67,0.00,,-RA,0.00,VWS V14.01,2013-04-23 08:31:00,
2013-04-23 03:35:00,52.1,41.9,29.91,North,360,2.0,12.0,68,0.00,,FEW250,0.00,VWS V14.01,2013-04-23 08:35:00,
2013-04-23 03:36:00,52.1,42.2,29.91,North,360,2.0,12.0,69,0.00,,-RA,0.00,VWS V14.01,2013-04-23 08:36:00,
2013-04-23 03:40:00,51.9,42.8,29.91,SSW,204,0.0,12.0,71,0.00,,FEW250,0.00,VWS V14.01,2013-04-23 08:40:00,
2013-04-23 03:41:00,51.8,42.7,29.91,North,360,6.0,6.0,71,0.00,,-RA,0.00,VWS V14.01,2013-04-23 08:41:00,
2013-04-23 03:45:00,51.6,43.2,29.91,North,360,2.0,7.0,73,0.00,,FEW250,0.00,VWS V14.01,2013-04-23 08:45:00,
2013-04-23 03:46:00,51.5,43.1,29.91,North,360,3.0,7.0,73,0.00,,-RA,0.00,VWS V14.01,2013-04-23 08:46:00,
2013-04-23 03:50:00,51.3,43.3,29.91,SSW,213,0.0,7.0,74,0.00,,FEW250,0.00,VWS V14.01,2013-04-23 08:50:00,
2013-04-23 03:51:00,51.2,43.9,29.90,SW,215,0.0,7.0,76,0.00,,-RA,0.00,VWS V14.01,2013-04-23 08:51:00,
2013-04-23 03:55:00,51.0,44.0,29.90,SSW,213,0.0,6.0,77,0.00,,FEW250,0.00,VWS V14.01,2013-04-23 08:55:00,
2013-04-23 03:56:00,50.8,44.2,29.90,SSW,195,5.0,7.0,78,0.00,,-RA,0.00,VWS V14.01,2013-04-23 08:56:00,
2013-04-23 04:00:00,50.7,44.4,29.90,SSW,195,7.0,12.0,79,0.01,,FEW250,0.01,VWS V14.01,2013-04-23 09:00:00,
2013-04-23 04:01:00,50.6,44.3,29.90,SSW,196,8.0,12.0,79,0.01,,-RA,0.01,VWS V14.01,2013-04-23 09:01:00,
2013-04-23 04:05:00,50.7,44.4,29.90,SSW,194,7.0,12.0,79,0.01,,FEW250,0.01,VWS V14.01,2013-04-23 09:05:00,
2013-04-23 04:06:00,50.6,44.3,29.90,North,360,0.0,10.0,79,0.01,,-RA,0.01,VWS V14.01,2013-04-23 09:06:00,
2013-04-23 04:10:00,50.6,44.7,29.89,North,360,0.0,9.0,80,0.01,,FEW250,0.01,VWS V14.01,2013-04-23 09:10:00,
2013-04-23 04:11:00,50.5,44.6,29.89,SSW,193,0.0,4.0,80,0.01,,-RA,0.01,VWS V14.01,2013-04-23 09:11:00,
2013-04-23 04:15:00,50.4,44.5,29.89,South,183,4.0,4.0,80,0.01,,FEW250,0.01,VWS V14.01,2013-04-23 09:15:00,
2013-04-23 04:16:00,50.3,44.4,29.89,South,182,0.0,4.0,80,0.01,,-RA,0.01,VWS V14.01,2013-04-23 09:16:00,
2013-04-23 04:20:00,50.3,44.4,29.88,South,177,0.0,4.0,80,0.01,,FEW250,0.01,VWS V14.01,2013-04-23 09:20:00,
2013-04-23 04:21:00,50.3,44.4,29.88,North,360,0.0,3.0,80,0.01,,-RA,0.01,VWS V14.01,2013-04-23 09:21:00,
2013-04-23 04:25:00,50.3,44.4,29.88,South,178,0.0,0.0,80,0.01,,FEW250,0.01,VWS V14.01,2013-04-23 09:25:00,
2013-04-23 04:27:00,50.2,44.3,29.88,South,178,0.0,0.0,80,0.01,,-RA,0.01,VWS V14.01,2013-04-23 09:27:00,
2013-04-23 04:30:00,50.1,44.5,29.88,North,360,0.0,0.0,81,0.01,,FEW250,0.01,VWS V14.01,2013-04-23 09:30:00,
2013-04-23 04:32:00,50.0,44.4,29.87,North,360,0.0,6.0,81,0.01,,-RA,0.01,VWS V14.01,2013-04-23 09:32:00,
2013-04-23 04:35:00,49.9,44.3,29.87,South,178,0.0,6.0,81,0.01,,FEW250,0.01,VWS V14.01,2013-04-23 09:35:00,
2013-04-23 04:37:00,49.7,44.1,29.87,South,178,0.0,0.0,81,0.01,,-RA,0.01,VWS V14.01,2013-04-23 09:37:00,
2013-04-23 04:40:00,49.5,44.2,29.86,North,360,0.0,0.0,82,0.01,,FEW250,0.01,VWS V14.01,2013-04-23 09:40:00,
2013-04-23 04:42:00,49.3,44.0,29.86,South,178,0.0,0.0,82,0.01,,-RA,0.01,VWS V14.01,2013-04-23 09:42:00,
2013-04-23 04:45:00,49.3,44.0,29.87,South,178,0.0,0.0,82,0.01,,FEW250,0.01,VWS V14.01,2013-04-23 09:45:00,
2013-04-23 04:47:00,49.1,44.2,29.87,South,178,0.0,0.0,83,0.01,,-RA,0.01,VWS V14.01,2013-04-23 09:47:00,
2013-04-23 04:50:00,49.0,44.1,29.87,South,178,0.0,0.0,83,0.01,,FEW250,0.01,VWS V14.01,2013-04-23 09:50:00,
2013-04-23 04:52:00,48.9,44.3,29.87,South,178,0.0,0.0,84,0.01,,-RA,0.01,VWS V14.01,2013-04-23 09:52:00,
2013-04-23 04:55:00,48.9,44.3,29.87,South,178,0.0,0.0,84,0.01,,FEW250,0.01,VWS V14.01,2013-04-23 09:55:00,
2013-04-23 04:57:00,49.2,44.9,29.87,South,178,0.0,0.0,85,0.01,,-RA,0.01,VWS V14.01,2013-04-23 09:57:00,
2013-04-23 05:00:00,49.4,45.1,29.87,South,178,0.0,0.0,85,0.01,,FEW250,0.01,VWS V14.01,2013-04-23 10:00:00,
2013-04-23 05:02:00,49.8,45.2,29.87,South,180,0.0,0.0,84,0.00,,OVC100,0.01,VWS V14.01,2013-04-23 10:02:00,
2013-04-23 05:05:00,49.9,45.3,29.87,South,183,0.0,0.0,84,0.00,,FEW250,0.01,VWS V14.01,2013-04-23 10:05:00,
2013-04-23 05:07:00,50.0,45.4,29.87,SSW,196,0.0,0.0,84,0.00,,OVC100,0.01,VWS V14.01,2013-04-23 10:07:00,
2013-04-23 05:10:00,49.9,45.3,29.87,SSW,198,0.0,4.0,84,0.00,,FEW250,0.01,VWS V14.01,2013-04-23 10:10:00,
2013-04-23 05:12:00,49.9,45.3,29.87,SSW,198,0.0,4.0,84,0.00,,OVC100,0.01,VWS V14.01,2013-04-23 10:12:00,
2013-04-23 05:15:00,49.9,45.3,29.87,SSW,198,0.0,0.0,84,0.00,,FEW250,0.01,VWS V14.01,2013-04-23 10:15:00,
2013-04-23 05:17:00,49.9,45.6,29.87,SSW,199,4.0,5.0,85,0.00,,OVC100,0.01,VWS V14.01,2013-04-23 10:17:00,
2013-04-23 05:20:00,50.0,45.7,29.87,North,360,6.0,7.0,85,0.00,,FEW250,0.01,VWS V14.01,2013-04-23 10:20:00,
2013-04-23 05:22:00,50.2,45.6,29.86,SSW,200,0.0,7.0,84,0.00,,OVC100,0.01,VWS V14.01,2013-04-23 10:22:00,
2013-04-23 05:25:00,50.2,45.6,29.86,North,360,0.0,6.0,84,0.00,,FEW250,0.01,VWS V14.01,2013-04-23 10:25:00,
2013-04-23 05:27:00,50.3,45.7,29.87,SSW,207,4.0,5.0,84,0.00,,OVC100,0.01,VWS V14.01,2013-04-23 10:27:00,
2013-04-23 05:30:00,50.2,45.6,29.86,SSW,207,0.0,5.0,84,0.00,,FEW250,0.01,VWS V14.01,2013-04-23 10:30:00,
2013-04-23 05:32:00,50.3,45.7,29.86,SSW,207,0.0,0.0,84,0.00,,OVC100,0.01,VWS V14.01,2013-04-23 10:32:00,
2013-04-23 05:35:00,50.3,45.7,29.86,SSW,205,0.0,0.0,84,0.00,,FEW250,0.01,VWS V14.01,2013-04-23 10:35:00,
2013-04-23 05:37:00,50.4,46.1,29.85,SSW,205,0.0,0.0,85,0.00,,OVC100,0.01,VWS V14.01,2013-04-23 10:37:00,
2013-04-23 05:40:00,50.4,46.1,29.85,SSW,205,0.0,0.0,85,0.00,,FEW250,0.01,VWS V14.01,2013-04-23 10:40:00,
2013-04-23 05:43:00,50.3,45.7,29.84,SSW,205,0.0,0.0,84,0.00,,OVC100,0.01,VWS V14.01,2013-04-23 10:43:00,
2013-04-23 05:45:00,50.2,45.6,29.84,SSW,205,0.0,0.0,84,0.00,,FEW250,0.01,VWS V14.01,2013-04-23 10:45:00,
2013-04-23 05:48:00,47.9,41.7,29.83,ESE,105,0.0,0.0,79,0.00,,OVC100,0.01,VWS V14.01,2013-04-23 10:48:00,
2013-04-23 05:50:00,47.1,41.3,29.83,ESE,105,0.0,0.0,80,0.00,,FEW250,0.01,VWS V14.01,2013-04-23 10:50:00,
2013-04-23 05:53:00,45.0,40.5,29.83,ESE,105,0.0,0.0,84,0.00,,OVC100,0.01,VWS V14.01,2013-04-23 10:53:00,
2013-04-23 05:55:00,44.8,40.6,29.83,ESE,105,0.0,0.0,85,0.00,,FEW250,0.01,VWS V14.01,2013-04-23 10:55:00,
2013-04-23 05:58:00,44.3,41.0,29.84,ESE,105,0.0,0.0,88,0.00,,OVC100,0.01,VWS V14.01,2013-04-23 10:58:00,
2013-04-23 06:00:00,44.4,41.4,29.84,ESE,105,0.0,0.0,89,0.00,,FEW250,0.01,VWS V14.01,2013-04-23 11:00:00,
2013-04-23 06:03:00,44.9,42.4,29.86,ESE,105,0.0,0.0,91,0.00,,OVC100,0.01,VWS V14.01,2013-04-23 11:03:00,
2013-04-23 06:05:00,45.2,43.0,29.86,ESE,109,0.0,0.0,92,0.00,,FEW250,0.01,VWS V14.01,2013-04-23 11:05:00,
2013-04-23 06:08:00,46.3,44.1,29.86,ESE,123,0.0,0.0,92,0.00,,OVC100,0.01,VWS V14.01,2013-04-23 11:08:00,
2013-04-23 06:10:00,46.5,44.3,29.86,ESE,123,0.0,0.0,92,0.00,,FEW250,0.01,VWS V14.01,2013-04-23 11:10:00,
2013-04-23 06:13:00,47.2,45.0,29.86,ESE,123,0.0,0.0,92,0.00,,OVC100,0.01,VWS V14.01,2013-04-23 11:13:00,
2013-04-23 06:15:00,47.3,44.8,29.86,ESE,123,0.0,0.0,91,0.00,,FEW250,0.01,VWS V14.01,2013-04-23 11:15:00,
2013-04-23 06:18:00,47.9,45.4,29.86,SE,140,0.0,1.0,91,0.00,,OVC100,0.01,VWS V14.01,2013-04-23 11:18:00,
2013-04-23 06:20:00,48.0,45.5,29.86,SE,140,0.0,1.0,91,0.00,,FEW250,0.01,VWS V14.01,2013-04-23 11:20:00,
2013-04-23 06:23:00,48.5,45.7,29.87,SSE,159,0.0,0.0,90,0.00,,OVC100,0.01,VWS V14.01,2013-04-23 11:23:00,
2013-04-23 06:25:00,48.6,45.8,29.87,South,172,0.0,0.0,90,0.00,,FEW250,0.01,VWS V14.01,2013-04-23 11:25:00,
2013-04-23 06:28:00,49.0,46.2,29.87,South,176,0.0,0.0,90,0.00,,OVC100,0.01,VWS V14.01,2013-04-23 11:28:00,
2013-04-23 06:30:00,49.1,46.0,29.87,South,176,0.0,0.0,89,0.00,,FEW250,0.01,VWS V14.01,2013-04-23 11:30:00,
2013-04-23 06:33:00,49.5,46.4,29.87,North,360,0.0,0.0,89,0.00,,OVC100,0.01,VWS V14.01,2013-04-23 11:33:00,
2013-04-23 06:35:00,49.5,46.4,29.87,North,360,0.0,0.0,89,0.00,,FEW250,0.01,VWS V14.01,2013-04-23 11:35:00,
2013-04-23 06:38:00,49.8,46.4,29.87,North,360,0.0,3.0,88,0.00,,OVC100,0.01,VWS V14.01,2013-04-23 11:38:00,
2013-04-23 06:40:00,49.8,46.4,29.87,North,360,3.0,3.0,88,0.00,,FEW250,0.01,VWS V14.01,2013-04-23 11:40:00,
2013-04-23 06:43:00,50.0,46.6,29.88,North,360,0.0,7.0,88,0.00,,OVC100,0.01,VWS V14.01,2013-04-23 11:43:00,
2013-04-23 06:45:00,50.0,46.6,29.88,North,360,0.0,7.0,88,0.00,,FEW250,0.01,VWS V14.01,2013-04-23 11:45:00,
2013-04-23 06:48:00,50.1,46.4,29.88,South,186,0.0,7.0,87,0.00,,OVC100,0.01,VWS V14.01,2013-04-23 11:48:00,
2013-04-23 06:50:00,50.2,46.5,29.88,North,360,0.0,7.0,87,0.00,,FEW250,0.01,VWS V14.01,2013-04-23 11:50:00,
2013-04-23 06:54:00,50.3,46.6,29.87,North,360,0.0,5.0,87,0.00,,OVC100,0.01,VWS V14.01,2013-04-23 11:54:00,
2013-04-23 06:55:00,50.3,46.6,29.87,North,360,0.0,5.0,87,0.00,,FEW250,0.01,VWS V14.01,2013-04-23 11:55:00,
2013-04-23 06:59:00,50.4,46.7,29.87,North,360,0.0,0.0,87,0.00,,OVC100,0.01,VWS V14.01,2013-04-23 11:59:00,
2013-04-23 07:00:00,50.4,46.7,29.87,North,360,0.0,0.0,87,0.00,,FEW250,0.01,VWS V14.01,2013-04-23 12:00:00,
2013-04-23 07:04:00,50.5,46.8,29.87,South,190,0.0,0.0,87,0.00,,-RA,0.01,VWS V14.01,2013-04-23 12:04:00,
2013-04-23 07:05:00,50.5,46.8,29.87,South,190,0.0,0.0,87,0.00,,SCT250,0.01,VWS V14.01,2013-04-23 12:05:00,
2013-04-23 07:09:00,50.6,46.9,29.87,South,189,0.0,6.0,87,0.00,,-RA,0.01,VWS V14.01,2013-04-23 12:09:00,
2013-04-23 07:10:00,50.6,46.9,29.87,South,189,0.0,6.0,87,0.00,,FEW250,0.01,VWS V14.01,2013-04-23 12:10:00,
2013-04-23 07:14:00,50.4,46.7,29.87,SSW,205,5.0,7.0,87,0.00,,-RA,0.01,VWS V14.01,2013-04-23 12:14:00,
2013-04-23 07:15:00,50.4,46.7,29.87,SSW,205,5.0,7.0,87,0.00,,FEW250,0.01,VWS V14.01,2013-04-23 12:15:00,
2013-04-23 07:19:00,50.6,46.9,29.87,North,360,0.0,7.0,87,0.00,,-RA,0.01,VWS V14.01,2013-04-23 12:19:00,
2013-04-23 07:20:00,50.6,46.9,29.87,North,360,0.0,7.0,87,0.00,,FEW250,0.01,VWS V14.01,2013-04-23 12:20:00,
2013-04-23 07:24:00,50.7,47.0,29.86,South,190,0.0,6.0,87,0.00,,-RA,0.01,VWS V14.01,2013-04-23 12:24:00,
2013-04-23 07:25:00,50.7,47.0,29.86,South,190,0.0,6.0,87,0.00,,FEW250,0.01,VWS V14.01,2013-04-23 12:25:00,
2013-04-23 07:29:00,50.9,46.9,29.86,SSW,200,0.0,0.0,86,0.00,,-RA,0.01,VWS V14.01,2013-04-23 12:29:00,
2013-04-23 07:30:00,50.9,46.9,29.86,SSW,200,0.0,0.0,86,0.00,,FEW250,0.01,VWS V14.01,2013-04-23 12:30:00,
2013-04-23 07:34:00,50.8,46.5,29.87,South,190,0.0,0.0,85,0.00,,-RA,0.01,VWS V14.01,2013-04-23 12:34:00,
2013-04-23 07:35:00,50.8,46.5,29.87,South,190,0.0,0.0,85,0.00,,FEW250,0.01,VWS V14.01,2013-04-23 12:35:00,
2013-04-23 07:39:00,49.0,44.4,29.86,SE,135,0.0,0.0,84,0.00,,-RA,0.01,VWS V14.01,2013-04-23 12:39:00,
2013-04-23 07:40:00,49.0,44.4,29.86,SE,135,0.0,0.0,84,0.00,,FEW250,0.01,VWS V14.01,2013-04-23 12:40:00,
2013-04-23 07:44:00,48.9,45.8,29.86,North,360,7.0,7.0,89,0.00,,-RA,0.01,VWS V14.01,2013-04-23 12:44:00,
2013-04-23 07:45:00,48.8,45.4,29.86,North,360,0.0,0.0,88,0.00,,FEW250,0.01,VWS V14.01,2013-04-23 12:45:00,
2013-04-23 07:49:00,49.9,46.8,29.86,SSW,200,5.0,6.0,89,0.00,,-RA,0.01,VWS V14.01,2013-04-23 12:49:00,
2013-04-23 07:50:00,49.8,46.7,29.86,North,360,3.0,7.0,89,0.00,,FEW250,0.01,VWS V14.01,2013-04-23 12:50:00,
2013-04-23 07:54:00,50.7,47.3,29.86,North,360,6.0,9.0,88,0.00,,-RA,0.01,VWS V14.01,2013-04-23 12:54:00,
2013-04-23 07:55:00,50.6,47.2,29.86,North,360,0.0,9.0,88,0.00,,FEW250,0.01,VWS V14.01,2013-04-23 12:55:00,
2013-04-23 07:59:00,51.2,47.5,29.86,North,360,10.0,11.0,87,0.00,,-RA,0.01,VWS V14.01,2013-04-23 12:59:00,
2013-04-23 08:00:00,51.2,47.5,29.86,North,360,6.0,10.0,87,0.00,,FEW250,0.01,VWS V14.01,2013-04-23 13:00:00,
2013-04-23 08:05:00,51.4,47.4,29.86,North,360,0.0,9.0,86,0.00,,OVC200,0.01,VWS V14.01,2013-04-23 13:05:00,
2013-04-23 08:10:00,51.7,47.7,29.86,North,360,7.0,9.0,86,0.00,,OVC200,0.01,VWS V14.01,2013-04-23 13:10:00,
2013-04-23 08:15:00,51.8,47.8,29.85,SSW,201,6.0,12.0,86,0.00,,OVC200,0.01,VWS V14.01,2013-04-23 13:15:00,
2013-04-23 08:20:00,52.1,48.0,29.86,SSW,192,6.0,12.0,86,0.00,,OVC200,0.01,VWS V14.01,2013-04-23 13:20:00,
2013-04-23 08:25:00,52.3,48.2,29.86,SW,229,4.0,7.0,86,0.00,,OVC200,0.01,VWS V14.01,2013-04-23 13:25:00,
2013-04-23 08:30:00,52.5,48.4,29.86,South,178,6.0,8.0,86,0.00,,OVC200,0.01,VWS V14.01,2013-04-23 13:30:00,
2013-04-23 08:35:00,52.8,48.7,29.86,SW,227,4.0,11.0,86,0.00,,OVC200,0.01,VWS V14.01,2013-04-23 13:35:00,
2013-04-23 08:40:00,52.9,48.8,29.86,North,360,7.0,10.0,86,0.00,,OVC200,0.01,VWS V14.01,2013-04-23 13:40:00,
2013-04-23 08:45:00,53.1,49.0,29.86,North,360,8.0,12.0,86,0.00,,OVC200,0.01,VWS V14.01,2013-04-23 13:45:00,
2013-04-23 08:50:00,53.3,48.9,29.87,North,360,10.0,12.0,85,0.00,,OVC200,0.01,VWS V14.01,2013-04-23 13:50:00,
2013-04-23 08:55:00,53.3,48.9,29.87,North,360,5.0,13.0,85,0.00,,OVC200,0.01,VWS V14.01,2013-04-23 13:55:00,
2013-04-23 09:00:00,53.4,49.0,29.87,North,360,5.0,11.0,85,0.00,,OVC200,0.01,VWS V14.01,2013-04-23 14:00:00,
2013-04-23 09:05:00,53.5,49.1,29.86,SW,223,0.0,10.0,85,0.00,,OVC200,0.01,VWS V14.01,2013-04-23 14:05:00,
2013-04-23 09:10:00,53.6,48.9,29.86,North,360,6.0,11.0,84,0.00,,OVC200,0.01,VWS V14.01,2013-04-23 14:10:00,
2013-04-23 09:15:00,53.7,49.0,29.86,North,360,3.0,11.0,84,0.00,,OVC200,0.01,VWS V14.01,2013-04-23 14:15:00,
2013-04-23 09:20:00,54.0,49.3,29.86,SW,220,0.0,7.0,84,0.00,,FEW250,0.01,VWS V14.01,2013-04-23 14:20:00,
2013-04-23 09:21:00,54.1,49.4,29.85,SW,234,0.0,7.0,84,0.00,,OVC200,0.01,VWS V14.01,2013-04-23 14:21:00,
2013-04-23 09:25:00,54.2,49.2,29.85,North,360,4.0,10.0,83,0.00,,FEW250,0.01,VWS V14.01,2013-04-23 14:25:00,
2013-04-23 09:26:00,54.4,49.3,29.85,SW,215,6.0,10.0,83,0.00,,OVC200,0.01,VWS V14.01,2013-04-23 14:26:00,
2013-04-23 09:30:00,54.6,49.5,29.86,WNW,288,7.0,9.0,83,0.00,,FEW250,0.01,VWS V14.01,2013-04-23 14:30:00,
2013-04-23 09:31:00,54.7,49.3,29.86,North,360,7.0,14.0,82,0.00,,OVC200,0.01,VWS V14.01,2013-04-23 14:31:00,
2013-04-23 09:35:00,54.7,49.0,29.85,West,265,4.0,12.0,81,0.00,,FEW250,0.01,VWS V14.01,2013-04-23 14:35:00,
2013-04-23 09:36:00,54.7,49.3,29.86,SW,236,2.0,12.0,82,0.00,,OVC200,0.01,VWS V14.01,2013-04-23 14:36:00,
2013-04-23 09:40:00,54.6,48.9,29.85,North,360,4.0,13.0,81,0.00,,FEW250,0.01,VWS V14.01,2013-04-23 14:40:00,
2013-04-23 09:41:00,54.6,48.9,29.85,North,360,10.0,12.0,81,0.00,,OVC200,0.01,VWS V14.01,2013-04-23 14:41:00,
2013-04-23 09:45:00,54.6,48.9,29.85,West,275,6.0,15.0,81,0.00,,FEW250,0.01,VWS V14.01,2013-04-23 14:45:00,
2013-04-23 09:46:00,54.5,48.8,29.84,North,360,2.0,15.0,81,0.00,,OVC200,0.01,VWS V14.01,2013-04-23 14:46:00,
2013-04-23 09:50:00,54.6,48.9,29.84,SSW,192,1.0,15.0,81,0.00,,FEW250,0.01,VWS V14.01,2013-04-23 14:50:00,
2013-04-23 09:51:00,54.8,49.1,29.84,North,360,7.0,12.0,81,0.00,,OVC200,0.01,VWS V14.01,2013-04-23 14:51:00,
2013-04-23 09:55:00,55.1,49.4,29.84,North,360,6.0,8.0,81,0.00,,FEW250,0.01,VWS V14.01,2013-04-23 14:55:00,
2013-04-23 09:56:00,55.4,49.7,29.83,North,360,6.0,12.0,81,0.00,,OVC200,0.01,VWS V14.01,2013-04-23 14:56:00,
2013-04-23 10:00:00,55.7,49.6,29.83,North,360,1.0,12.0,80,0.00,,FEW250,0.01,VWS V14.01,2013-04-23 15:00:00,
2013-04-23 10:01:00,56.0,49.9,29.83,North,360,7.0,12.0,80,0.00,,OVC230,0.01,VWS V14.01,2013-04-23 15:01:00,
2013-04-23 10:05:00,55.9,49.2,29.83,North,360,7.0,12.0,78,0.00,,FEW250,0.01,VWS V14.01,2013-04-23 15:05:00,
2013-04-23 10:06:00,55.9,49.2,29.83,West,273,8.0,11.0,78,0.00,,OVC230,0.01,VWS V14.01,2013-04-23 15:06:00,
2013-04-23 10:10:00,56.0,49.2,29.83,North,360,11.0,11.0,78,0.00,,FEW250,0.01,VWS V14.01,2013-04-23 15:10:00,
2013-04-23 10:11:00,56.1,49.3,29.84,North,360,10.0,12.0,78,0.00,,OVC230,0.01,VWS V14.01,2013-04-23 15:11:00,
2013-04-23 10:15:00,56.2,49.4,29.84,North,360,6.0,12.0,78,0.00,,FEW250,0.01,VWS V14.01,2013-04-23 15:15:00,
2013-04-23 10:16:00,56.4,49.3,29.84,West,278,3.0,12.0,77,0.00,,OVC230,0.01,VWS V14.01,2013-04-23 15:16:00,
2013-04-23 10:20:00,56.4,49.3,29.85,North,360,7.0,15.0,77,0.00,,FEW250,0.01,VWS V14.01,2013-04-23 15:20:00,
2013-04-23 10:21:00,56.3,48.8,29.85,North,360,10.0,15.0,76,0.00,,OVC230,0.01,VWS V14.01,2013-04-23 15:21:00,
2013-04-23 10:25:00,56.4,49.3,29.85,West,266,0.0,11.0,77,0.00,,FEW250,0.01,VWS V14.01,2013-04-23 15:25:00,
2013-04-23 10:26:00,56.6,49.1,29.85,North,360,7.0,12.0,76,0.00,,OVC230,0.01,VWS V14.01,2013-04-23 15:26:00,
2013-04-23 10:30:00,56.4,48.9,29.85,South,177,11.0,15.0,76,0.00,,FEW250,0.01,VWS V14.01,2013-04-23 15:30:00,
2013-04-23 10:32:00,55.9,48.5,29.85,North,360,3.0,17.0,76,0.00,,OVC230,0.01,VWS V14.01,2013-04-23 15:32:00,
2013-04-23 10:35:00,55.7,48.6,29.86,North,360,5.0,17.0,77,0.00,,FEW250,0.01,VWS V14.01,2013-04-23 15:35:00,
2013-04-23 10:37:00,54.8,47.7,29.85,WSW,244,8.0,20.0,77,0.00,,OVC230,0.01,VWS V14.01,2013-04-23 15:37:00,
2013-04-23 10:40:00,53.8,47.1,29.85,North,360,11.0,20.0,78,0.00,,FEW250,0.01,VWS V14.01,2013-04-23 15:40:00,
2013-04-23 10:42:00,52.9,47.2,29.85,North,360,11.0,16.0,81,0.00,,OVC230,0.01,VWS V14.01,2013-04-23 15:42:00,
2013-04-23 10:45:00,52.4,46.8,29.85,WNW,286,10.0,16.0,81,0.00,,FEW250,0.01,VWS V14.01,2013-04-23 15:45:00,
2013-04-23 10:47:00,51.3,45.3,29.86,WNW,296,14.0,20.0,80,0.00,,OVC230,0.01,VWS V14.01,2013-04-23 15:47:00,
2013-04-23 10:50:00,50.4,44.8,29.86,North,360,9.0,21.0,81,0.00,,FEW250,0.01,VWS V14.01,2013-04-23 15:50:00,
2013-04-23 10:52:00,49.5,44.2,29.86,West,269,18.0,21.0,82,0.00,,OVC230,0.01,VWS V14.01,2013-04-23 15:52:00,
2013-04-23 10:55:00,48.8,43.2,29.86,North,360,16.0,24.0,81,0.00,,FEW250,0.01,VWS V14.01,2013-04-23 15:55:00,
2013-04-23 10:57:00,47.6,41.8,29.87,WNW,285,9.0,24.0,80,0.00,,OVC230,0.01,VWS V14.01,2013-04-23 15:57:00,
2013-04-23 11:00:00,47.3,41.8,29.87,North,360,10.0,22.0,81,0.00,,FEW250,0.01,VWS V14.01,2013-04-23 16:00:00,
2013-04-23 11:02:00,46.5,41.0,29.88,West,278,9.0,26.0,81,0.00,,-RA,0.01,VWS V14.01,2013-04-23 16:02:00,
2013-04-23 11:05:00,46.4,40.9,29.88,WNW,289,12.0,26.0,81,0.00,,FEW250,0.01,VWS V14.01,2013-04-23 16:05:00,
2013-04-23 11:07:00,45.8,40.6,29.88,North,360,13.0,23.0,82,0.00,,-RA,0.01,VWS V14.01,2013-04-23 16:07:00,
2013-04-23 11:10:00,45.5,40.3,29.88,North,360,11.0,23.0,82,0.00,,FEW250,0.01,VWS V14.01,2013-04-23 16:10:00,
2013-04-23 11:12:00,45.1,40.2,29.88,WSW,243,12.0,22.0,83,0.00,,-RA,0.01,VWS V14.01,2013-04-23 16:12:00,
2013-04-23 11:15:00,44.9,40.1,29.89,WSW,246,15.0,22.0,83,0.00,,FEW250,0.01,VWS V14.01,2013-04-23 16:15:00,
2013-04-23 11:17:00,44.6,40.1,29.89,North,360,7.0,20.0,84,0.00,,-RA,0.01,VWS V14.01,2013-04-23 16:17:00,
2013-04-23 11:20:00,44.6,40.4,29.89,North,360,4.0,20.0,85,0.00,,FEW250,0.01,VWS V14.01,2013-04-23 16:20:00,
2013-04-23 11:22:00,44.4,40.2,29.89,WNW,286,11.0,18.0,85,0.00,,-RA,0.01,VWS V14.01,2013-04-23 16:22:00,
2013-04-23 11:25:00,44.2,40.0,29.89,North,360,11.0,18.0,85,0.01,,FEW250,0.02,VWS V14.01,2013-04-23 16:25:00,
2013-04-23 11:27:00,43.7,39.5,29.89,West,277,7.0,21.0,85,0.01,,-RA,0.02,VWS V14.01,2013-04-23 16:27:00,
2013-04-23 11:30:00,43.5,39.6,29.89,North,360,7.0,21.0,86,0.01,,FEW250,0.02,VWS V14.01,2013-04-23 16:30:00,
2013-04-23 11:32:00,43.1,39.2,29.89,North,360,12.0,17.0,86,0.01,,-RA,0.02,VWS V14.01,2013-04-23 16:32:00,
2013-04-23 11:35:00,42.8,38.9,29.89,WNW,301,8.0,17.0,86,0.01,,FEW250,0.02,VWS V14.01,2013-04-23 16:35:00,
2013-04-23 11:37:00,42.4,38.8,29.88,WNW,289,14.0,18.0,87,0.01,,-RA,0.02,VWS V14.01,2013-04-23 16:37:00,
2013-04-23 11:40:00,42.2,38.6,29.89,WNW,289,12.0,18.0,87,0.01,,FEW250,0.02,VWS V14.01,2013-04-23 16:40:00,
2013-04-23 11:42:00,41.9,38.6,29.89,WNW,286,6.0,17.0,88,0.01,,-RA,0.02,VWS V14.01,2013-04-23 16:42:00,
2013-04-23 11:45:00,41.9,38.6,29.89,North,360,10.0,17.0,88,0.01,,FEW250,0.02,VWS V14.01,2013-04-23 16:45:00,
2013-04-23 11:48:00,41.9,38.9,29.88,West,280,7.0,16.0,89,0.02,,-RA,0.03,VWS V14.01,2013-04-23 16:48:00,
2013-04-23 11:50:00,41.9,38.9,29.88,NW,321,6.0,13.0,89,0.02,,FEW250,0.03,VWS V14.01,2013-04-23 16:50:00,
2013-04-23 11:53:00,41.5,38.2,29.88,West,277,7.0,16.0,88,0.02,,-RA,0.03,VWS V14.01,2013-04-23 16:53:00,
2013-04-23 11:55:00,41.5,38.2,29.88,WNW,298,9.0,16.0,88,0.02,,FEW250,0.03,VWS V14.01,2013-04-23 16:55:00,
2013-04-23 11:58:00,41.4,38.4,29.88,WNW,300,10.0,18.0,89,0.03,,-RA,0.04,VWS V14.01,2013-04-23 16:58:00,
2013-04-23 12:00:00,41.3,38.0,29.88,WNW,299,11.0,18.0,88,0.03,,FEW250,0.04,VWS V14.01,2013-04-23 17:00:00,
2013-04-23 12:03:00,41.2,37.9,29.88,West,281,11.0,14.0,88,0.03,,-RA,0.04,VWS V14.01,2013-04-23 17:03:00,
2013-04-23 12:05:00,41.2,37.9,29.88,North,360,9.0,14.0,88,0.03,,FEW250,0.04,VWS V14.01,2013-04-23 17:05:00,
2013-04-23 12:08:00,41.0,38.0,29.88,West,277,13.0,17.0,89,0.04,,-RA,0.05,VWS V14.01,2013-04-23 17:08:00,
2013-04-23 12:10:00,41.0,37.7,29.88,North,360,9.0,17.0,88,0.04,,FEW250,0.05,VWS V14.01,2013-04-23 17:10:00,
2013-04-23 12:13:00,40.8,37.5,29.88,WNW,290,9.0,18.0,88,0.05,,-RA,0.06,VWS V14.01,2013-04-23 17:13:00,
2013-04-23 12:15:00,40.8,37.5,29.88,North,360,15.0,18.0,88,0.05,,FEW250,0.06,VWS V14.01,2013-04-23 17:15:00,
2013-04-23 12:18:00,40.8,37.8,29.88,North,360,11.0,15.0,89,0.05,,-RA,0.06,VWS V14.01,2013-04-23 17:18:00,
2013-04-23 12:20:00,40.8,37.8,29.88,North,360,9.0,15.0,89,0.05,,FEW250,0.06,VWS V14.01,2013-04-23 17:20:00,
2013-04-23 12:23:00,40.7,37.7,29.88,North,360,11.0,16.0,89,0.06,,-RA,0.07,VWS V14.01,2013-04-23 17:23:00,
2013-04-23 12:25:00,40.7,37.7,29.88,North,360,10.0,16.0,89,0.06,,FEW250,0.07,VWS V14.01,2013-04-23 17:25:00,
2013-04-23 12:28:00,40.7,38.0,29.88,WNW,284,6.0,17.0,90,0.06,,-RA,0.08,VWS V14.01,2013-04-23 17:28:00,
2013-04-23 12:30:00,40.7,38.0,29.88,North,360,6.0,15.0,90,0.06,,FEW250,0.08,VWS V14.01,2013-04-23 17:30:00,
2013-04-23 12:33:00,40.8,38.4,29.88,North,360,9.0,11.0,91,0.06,,-RA,0.08,VWS V14.01,2013-04-23 17:33:00,
2013-04-23 12:35:00,40.8,38.4,29.88,North,360,8.0,12.0,91,0.06,,FEW250,0.08,VWS V14.01,2013-04-23 17:35:00,
2013-04-23 12:38:00,40.7,38.3,29.89,WSW,252,9.0,12.0,91,0.07,,-RA,0.09,VWS V14.01,2013-04-23 17:38:00,
2013-04-23 12:40:00,40.7,38.3,29.89,North,360,9.0,12.0,91,0.08,,FEW250,0.10,VWS V14.01,2013-04-23 17:40:00,
2013-04-23 12:43:00,40.7,38.3,29.88,North,360,0.0,11.0,91,0.09,,-RA,0.11,VWS V14.01,2013-04-23 17:43:00,
2013-04-23 12:45:00,40.7,38.3,29.89,West,279,6.0,11.0,91,0.09,,FEW250,0.11,VWS V14.01,2013-04-23 17:45:00,
2013-04-23 12:48:00,40.6,38.2,29.89,West,279,7.0,14.0,91,0.10,,-RA,0.12,VWS V14.01,2013-04-23 17:48:00,
2013-04-23 12:50:00,40.6,38.2,29.89,WNW,292,10.0,14.0,91,0.10,,FEW250,0.12,VWS V14.01,2013-04-23 17:50:00,
2013-04-23 12:53:00,40.7,38.3,29.88,WNW,290,3.0,13.0,91,0.10,,-RA,0.13,VWS V14.01,2013-04-23 17:53:00,
2013-04-23 12:55:00,40.7,38.3,29.88,WNW,284,5.0,13.0,91,0.10,,FEW250,0.13,VWS V14.01,2013-04-23 17:55:00,
2013-04-23 12:59:00,40.8,38.7,29.89,North,360,6.0,9.0,92,0.11,,-RA,0.14,VWS V14.01,2013-04-23 17:59:00,
2013-04-23 13:00:00,40.8,38.7,29.89,North,360,6.0,9.0,92,0.11,,FEW250,0.14,VWS V14.01,2013-04-23 18:00:00,
2013-04-23 13:04:00,40.8,38.4,29.89,WNW,288,11.0,12.0,91,0.10,,RA,0.14,VWS V14.01,2013-04-23 18:04:00,
2013-04-23 13:05:00,40.8,38.4,29.89,West,269,11.0,12.0,91,0.10,,FEW250,0.14,VWS V14.01,2013-04-23 18:05:00,
2013-04-23 13:09:00,40.9,38.5,29.89,WNW,301,9.0,12.0,91,0.11,,RA,0.15,VWS V14.01,2013-04-23 18:09:00,
2013-04-23 13:10:00,40.9,38.5,29.89,WNW,301,9.0,12.0,91,0.11,,FEW250,0.15,VWS V14.01,2013-04-23 18:10:00,
2013-04-23 13:14:00,40.9,38.5,29.89,WNW,294,8.0,15.0,91,0.11,,RA,0.16,VWS V14.01,2013-04-23 18:14:00,
2013-04-23 13:15:00,40.9,38.5,29.89,WNW,294,8.0,15.0,91,0.11,,FEW250,0.16,VWS V14.01,2013-04-23 18:15:00,
2013-04-23 13:19:00,40.6,37.9,29.89,WNW,289,7.0,17.0,90,0.11,,RA,0.17,VWS V14.01,2013-04-23 18:19:00,
2013-04-23 13:20:00,40.6,37.9,29.89,WNW,289,7.0,17.0,90,0.11,,FEW250,0.17,VWS V14.01,2013-04-23 18:20:00,
2013-04-23 13:24:00,40.6,38.2,29.89,North,360,5.0,13.0,91,0.12,,RA,0.18,VWS V14.01,2013-04-23 18:24:00,
2013-04-23 13:25:00,40.6,38.2,29.89,North,360,5.0,13.0,91,0.12,,FEW250,0.18,VWS V14.01,2013-04-23 18:25:00,
2013-04-23 13:29:00,40.5,38.1,29.88,WNW,295,7.0,16.0,91,0.12,,RA,0.19,VWS V14.01,2013-04-23 18:29:00,
2013-04-23 13:30:00,40.5,38.1,29.88,WNW,295,7.0,16.0,91,0.12,,FEW250,0.19,VWS V14.01,2013-04-23 18:30:00,
2013-04-23 13:34:00,40.5,38.4,29.88,NW,307,9.0,12.0,92,0.12,,-RA,0.20,VWS V14.01,2013-04-23 18:34:00,
2013-04-23 13:35:00,40.5,38.4,29.88,NW,307,9.0,12.0,92,0.12,,FEW250,0.20,VWS V14.01,2013-04-23 18:35:00,
2013-04-23 13:39:00,40.3,37.9,29.87,NW,313,7.0,18.0,91,0.13,,-RA,0.21,VWS V14.01,2013-04-23 18:39:00,
2013-04-23 13:40:00,40.3,37.9,29.87,NW,313,7.0,18.0,91,0.13,,FEW250,0.21,VWS V14.01,2013-04-23 18:40:00,
2013-04-23 13:44:00,39.9,37.5,29.88,NW,304,9.0,14.0,91,0.11,,-RA,0.22,VWS V14.01,2013-04-23 18:44:00,
2013-04-23 13:45:00,40.0,37.6,29.88,NW,308,7.0,14.0,91,0.12,,FEW250,0.22,VWS V14.01,2013-04-23 18:45:00,
2013-04-23 13:49:00,39.9,37.8,29.88,West,278,14.0,18.0,92,0.10,,-RA,0.22,VWS V14.01,2013-04-23 18:49:00,
2013-04-23 13:50:00,39.9,37.8,29.88,WNW,299,11.0,18.0,92,0.11,,FEW250,0.22,VWS V14.01,2013-04-23 18:50:00,
2013-04-23 13:54:00,39.8,37.4,29.88,WNW,296,6.0,15.0,91,0.10,,-RA,0.23,VWS V14.01,2013-04-23 18:54:00,
2013-04-23 13:55:00,39.7,37.3,29.88,North,360,8.0,16.0,91,0.11,,FEW250,0.23,VWS V14.01,2013-04-23 18:55:00,
2013-04-23 13:59:00,39.7,37.3,29.88,WNW,298,5.0,12.0,91,0.09,,-RA,0.23,VWS V14.01,2013-04-23 18:59:00,
2013-04-23 14:00:00,39.7,37.3,29.88,WNW,294,5.0,12.0,91,0.10,,FEW250,0.23,VWS V14.01,2013-04-23 19:00:00,
2013-04-23 14:04:00,39.8,37.7,29.88,WNW,292,7.0,11.0,92,0.10,,-RA,0.24,VWS V14.01,2013-04-23 19:04:00,
2013-04-23 14:05:00,39.8,37.7,29.88,NW,306,7.0,11.0,92,0.10,,FEW250,0.24,VWS V14.01,2013-04-23 19:05:00,
2013-04-23 14:09:00,39.7,37.6,29.88,WNW,295,1.0,10.0,92,0.10,,-RA,0.25,VWS V14.01,2013-04-23 19:09:00,
2013-04-23 14:10:00,39.7,37.6,29.88,WNW,293,8.0,10.0,92,0.11,,FEW250,0.25,VWS V14.01,2013-04-23 19:10:00,
2013-04-23 14:14:00,39.7,37.6,29.88,WNW,300,6.0,10.0,92,0.09,,-RA,0.25,VWS V14.01,2013-04-23 19:14:00,
2013-04-23 14:15:00,39.7,37.6,29.88,WNW,296,5.0,10.0,92,0.10,,FEW250,0.25,VWS V14.01,2013-04-23 19:15:00,
2013-04-23 14:20:00,39.7,37.8,29.88,NW,319,7.0,11.0,93,0.10,,-RA,0.27,VWS V14.01,2013-04-23 19:20:00,
2013-04-23 14:25:00,39.5,37.4,29.88,WNW,297,9.0,13.0,92,0.10,,-RA,0.28,VWS V14.01,2013-04-23 19:25:00,
2013-04-23 14:30:00,39.3,37.2,29.87,WNW,297,8.0,13.0,92,0.09,,-RA,0.28,VWS V14.01,2013-04-23 19:30:00,
2013-04-23 14:35:00,39.3,37.2,29.88,NW,313,11.0,14.0,92,0.09,,-RA,0.29,VWS V14.01,2013-04-23 19:35:00,
2013-04-23 14:40:00,39.3,37.2,29.88,North,360,10.0,16.0,92,0.09,,-RA,0.30,VWS V14.01,2013-04-23 19:40:00,
2013-04-23 14:45:00,39.2,37.1,29.88,North,360,6.0,15.0,92,0.09,,-RA,0.31,VWS V14.01,2013-04-23 19:45:00,
2013-04-23 14:50:00,39.3,37.2,29.88,North,360,8.0,14.0,92,0.10,,-RA,0.32,VWS V14.01,2013-04-23 19:50:00,
2013-04-23 14:55:00,39.1,37.0,29.88,WNW,293,16.0,16.0,92,0.10,,-RA,0.33,VWS V14.01,2013-04-23 19:55:00,
2013-04-23 15:00:00,39.1,37.0,29.88,WNW,298,10.0,15.0,92,0.11,,-RA,0.34,VWS V14.01,2013-04-23 20:00:00,
2013-04-23 15:05:00,39.1,37.0,29.88,NNW,333,6.0,13.0,92,0.11,,-RA,0.35,VWS V14.01,2013-04-23 20:05:00,
2013-04-23 15:10:00,39.3,37.2,29.88,WNW,298,7.0,12.0,92,0.11,,-RA,0.36,VWS V14.01,2013-04-23 20:10:00,
2013-04-23 15:15:00,39.2,37.1,29.88,WNW,299,6.0,11.0,92,0.12,,-RA,0.37,VWS V14.01,2013-04-23 20:15:00,
2013-04-23 15:20:00,39.2,37.1,29.88,NW,309,8.0,15.0,92,0.11,,-RA,0.37,VWS V14.01,2013-04-23 20:20:00,
2013-04-23 15:25:00,39.3,37.5,29.88,NW,306,4.0,11.0,93,0.11,,-RA,0.38,VWS V14.01,2013-04-23 20:25:00,
2013-04-23 15:30:00,39.3,37.2,29.88,NW,304,11.0,11.0,92,0.11,,FEW250,0.38,VWS V14.01,2013-04-23 20:30:00,
2013-04-23 15:31:00,39.3,37.2,29.88,WNW,303,7.0,15.0,92,0.11,,-RA,0.39,VWS V14.01,2013-04-23 20:31:00,
2013-04-23 15:35:00,39.2,37.1,29.88,North,360,13.0,15.0,92,0.11,,FEW250,0.39,VWS V14.01,2013-04-23 20:35:00,
2013-04-23 15:36:00,39.1,36.7,29.88,WNW,300,11.0,16.0,91,0.10,,-RA,0.39,VWS V14.01,2013-04-23 20:36:00,
2013-04-23 15:40:00,39.0,36.6,29.87,WNW,302,10.0,16.0,91,0.11,,FEW250,0.40,VWS V14.01,2013-04-23 20:40:00,
2013-04-23 15:41:00,39.0,36.6,29.88,WNW,291,8.0,14.0,91,0.10,,-RA,0.40,VWS V14.01,2013-04-23 20:41:00,
2013-04-23 15:45:00,39.0,36.6,29.88,WNW,301,8.0,14.0,91,0.10,,FEW250,0.40,VWS V14.01,2013-04-23 20:45:00,
2013-04-23 15:46:00,38.9,36.5,29.88,WNW,288,8.0,12.0,91,0.09,,-RA,0.40,VWS V14.01,2013-04-23 20:46:00,
2013-04-23 15:50:00,38.9,36.5,29.88,NW,310,9.0,14.0,91,0.10,,FEW250,0.41,VWS V14.01,2013-04-23 20:50:00,
2013-04-23 15:51:00,38.8,36.4,29.88,NW,312,13.0,14.0,91,0.09,,-RA,0.41,VWS V14.01,2013-04-23 20:51:00,
2013-04-23 15:55:00,38.7,36.3,29.88,NNW,346,0.0,14.0,91,0.09,,FEW250,0.41,VWS V14.01,2013-04-23 20:55:00,
2013-04-23 15:56:00,38.8,36.7,29.88,NNW,327,1.0,12.0,92,0.08,,-RA,0.41,VWS V14.01,2013-04-23 20:56:00,
2013-04-23 16:00:00,38.8,36.7,29.88,WNW,300,1.0,11.0,92,0.09,,FEW250,0.42,VWS V14.01,2013-04-23 21:00:00,
2013-04-23 16:01:00,38.8,36.7,29.88,NW,308,10.0,11.0,92,0.08,,-RA,0.42,VWS V14.01,2013-04-23 21:01:00,
2013-04-23 16:05:00,38.7,36.6,29.88,WNW,300,8.0,12.0,92,0.09,,FEW250,0.43,VWS V14.01,2013-04-23 21:05:00,
2013-04-23 16:06:00,38.6,36.5,29.89,WNW,284,7.0,12.0,92,0.08,,-RA,0.43,VWS V14.01,2013-04-23 21:06:00,
2013-04-23 16:10:00,38.6,36.5,29.89,NW,323,7.0,11.0,92,0.08,,FEW250,0.43,VWS V14.01,2013-04-23 21:10:00,
2013-04-23 16:11:00,38.5,36.4,29.89,NW,317,11.0,12.0,92,0.08,,-RA,0.44,VWS V14.01,2013-04-23 21:11:00,
2013-04-23 16:15:00,38.4,36.3,29.89,WNW,288,12.0,15.0,92,0.08,,FEW250,0.44,VWS V14.01,2013-04-23 21:15:00,
2013-04-23 16:16:00,38.4,36.3,29.89,NW,309,10.0,15.0,92,0.08,,-RA,0.44,VWS V14.01,2013-04-23 21:16:00,
2013-04-23 16:20:00,38.3,36.2,29.89,WNW,298,11.0,12.0,92,0.09,,FEW250,0.45,VWS V14.01,2013-04-23 21:20:00,
2013-04-23 16:22:00,38.1,36.0,29.89,WNW,297,7.0,12.0,92,0.08,,-RA,0.45,VWS V14.01,2013-04-23 21:22:00,
2013-04-23 16:25:00,38.2,36.1,29.89,WNW,294,7.0,11.0,92,0.08,,SCT250,0.45,VWS V14.01,2013-04-23 21:25:00,
2013-04-23 16:27:00,38.1,36.0,29.89,NW,310,4.0,13.0,92,0.07,,-RA,0.45,VWS V14.01,2013-04-23 21:27:00,
2013-04-23 16:30:00,38.1,36.0,29.89,WNW,294,6.0,12.0,92,0.08,,FEW250,0.46,VWS V14.01,2013-04-23 21:30:00,
2013-04-23 16:32:00,38.0,35.9,29.89,NW,310,0.0,11.0,92,0.08,,-RA,0.46,VWS V14.01,2013-04-23 21:32:00,
2013-04-23 16:35:00,38.1,36.0,29.89,WNW,292,3.0,11.0,92,0.08,,FEW250,0.46,VWS V14.01,2013-04-23 21:35:00,
2013-04-23 16:37:00,38.2,36.1,29.88,NW,308,1.0,10.0,92,0.07,,-RA,0.46,VWS V14.01,2013-04-23 21:37:00,
2013-04-23 16:40:00,38.2,36.1,29.88,WNW,300,4.0,7.0,92,0.07,,FEW250,0.46,VWS V14.01,2013-04-23 21:40:00,
2013-04-23 16:42:00,38.1,36.0,29.89,WNW,295,0.0,9.0,92,0.06,,-RA,0.46,VWS V14.01,2013-04-23 21:42:00,
2013-04-23 16:45:00,37.9,35.8,29.89,WNW,293,8.0,11.0,92,0.06,,FEW250,0.46,VWS V14.01,2013-04-23 21:45:00,
2013-04-23 16:47:00,37.8,35.7,29.89,North,360,7.0,11.0,92,0.07,,-RA,0.47,VWS V14.01,2013-04-23 21:47:00,
2013-04-23 16:50:00,37.8,35.7,29.89,NW,306,6.0,11.0,92,0.07,,FEW250,0.47,VWS V14.01,2013-04-23 21:50:00,
2013-04-23 16:52:00,37.7,35.6,29.89,West,271,0.0,9.0,92,0.06,,-RA,0.47,VWS V14.01,2013-04-23 21:52:00,
2013-04-23 16:55:00,37.8,36.0,29.89,WNW,291,4.0,9.0,93,0.06,,FEW250,0.47,VWS V14.01,2013-04-23 21:55:00,
2013-04-23 16:57:00,37.9,36.1,29.89,NW,304,5.0,9.0,93,0.07,,-RA,0.48,VWS V14.01,2013-04-23 21:57:00,
2013-04-23 17:00:00,37.9,36.1,29.89,WNW,291,6.0,8.0,93,0.07,,FEW250,0.48,VWS V14.01,2013-04-23 22:00:00,
2013-04-23 17:02:00,37.8,36.0,29.89,WNW,298,1.0,8.0,93,0.06,,-RA,0.48,VWS V14.01,2013-04-23 22:02:00,
2013-04-23 17:05:00,37.9,36.1,29.89,NW,309,3.0,8.0,93,0.06,,FEW250,0.48,VWS V14.01,2013-04-23 22:05:00,
2013-04-23 17:07:00,38.0,36.2,29.89,WNW,302,6.0,8.0,93,0.05,,-RA,0.48,VWS V14.01,2013-04-23 22:07:00,
2013-04-23 17:10:00,38.0,36.2,29.89,WNW,290,5.0,8.0,93,0.05,,FEW250,0.48,VWS V14.01,2013-04-23 22:10:00,
2013-04-23 17:12:00,38.1,36.3,29.89,NW,306,0.0,7.0,93,0.05,,-RA,0.48,VWS V14.01,2013-04-23 22:12:00,
2013-04-23 17:15:00,38.2,36.4,29.89,WNW,285,5.0,8.0,93,0.05,,FEW250,0.48,VWS V14.01,2013-04-23 22:15:00,
2013-04-23 17:17:00,38.2,36.4,29.89,NW,309,4.0,10.0,93,0.05,,-RA,0.49,VWS V14.01,2013-04-23 22:17:00,
2013-04-23 17:20:00,38.3,36.5,29.89,WNW,303,1.0,10.0,93,0.05,,FEW250,0.49,VWS V14.01,2013-04-23 22:20:00,
2013-04-23 17:22:00,38.3,36.2,29.89,NNW,340,1.0,11.0,92,0.04,,-RA,0.49,VWS V14.01,2013-04-23 22:22:00,
2013-04-23 17:25:00,38.4,36.6,29.89,WNW,295,6.0,11.0,93,0.04,,FEW250,0.49,VWS V14.01,2013-04-23 22:25:00,
2013-04-23 17:27:00,38.4,36.3,29.89,NE,40,7.0,10.0,92,0.04,,-RA,0.49,VWS V14.01,2013-04-23 22:27:00,
2013-04-23 17:30:00,38.4,36.3,29.89,NNW,342,7.0,13.0,92,0.04,,FEW250,0.49,VWS V14.01,2013-04-23 22:30:00,
2013-04-23 17:33:00,38.4,36.3,29.89,NW,315,7.0,13.0,92,0.03,,-RA,0.49,VWS V14.01,2013-04-23 22:33:00,
2013-04-23 17:35:00,38.4,36.3,29.89,NW,321,8.0,15.0,92,0.03,,FEW250,0.49,VWS V14.01,2013-04-23 22:35:00,
2013-04-23 17:38:00,38.5,36.1,29.89,NNW,340,6.0,15.0,91,0.03,,-RA,0.49,VWS V14.01,2013-04-23 22:38:00,
2013-04-23 17:40:00,38.6,36.5,29.89,North,360,7.0,13.0,92,0.03,,FEW250,0.49,VWS V14.01,2013-04-23 22:40:00,
2013-04-23 17:43:00,38.6,36.2,29.89,NW,306,6.0,13.0,91,0.03,,-RA,0.49,VWS V14.01,2013-04-23 22:43:00,
2013-04-23 17:45:00,38.6,36.2,29.89,NNW,331,3.0,11.0,91,0.03,,FEW250,0.49,VWS V14.01,2013-04-23 22:45:00,
2013-04-23 17:48:00,38.7,36.3,29.89,NNW,330,6.0,9.0,91,0.03,,-RA,0.49,VWS V14.01,2013-04-23 22:48:00,
2013-04-23 17:50:00,38.7,36.3,29.89,NNE,17,0.0,10.0,91,0.03,,FEW250,0.49,VWS V14.01,2013-04-23 22:50:00,
2013-04-23 17:53:00,38.7,36.3,29.89,NW,306,3.0,9.0,91,0.02,,-RA,0.49,VWS V14.01,2013-04-23 22:53:00,
2013-04-23 17:55:00,38.8,36.4,29.89,NW,313,0.0,9.0,91,0.02,,FEW250,0.49,VWS V14.01,2013-04-23 22:55:00,
2013-04-23 17:58:00,38.8,36.4,29.89,WNW,297,7.0,9.0,91,0.02,,-RA,0.49,VWS V14.01,2013-04-23 22:58:00,
2013-04-23 18:00:00,38.8,36.4,29.89,NW,326,1.0,9.0,91,0.02,,FEW250,0.49,VWS V14.01,2013-04-23 23:00:00,
2013-04-23 18:03:00,38.9,36.5,29.89,NW,316,3.0,9.0,91,0.01,,-RA,0.49,VWS V14.01,2013-04-23 23:03:00,
2013-04-23 18:05:00,38.9,36.5,29.89,NW,321,0.0,9.0,91,0.01,,FEW250,0.49,VWS V14.01,2013-04-23 23:05:00,
2013-04-23 18:08:00,39.1,36.7,29.89,NW,309,6.0,9.0,91,0.01,,-RA,0.49,VWS V14.01,2013-04-23 23:08:00,
2013-04-23 18:10:00,39.1,36.7,29.89,WNW,302,6.0,9.0,91,0.01,,FEW250,0.49,VWS V14.01,2013-04-23 23:10:00,
2013-04-23 18:13:00,39.2,36.8,29.89,NW,306,4.0,9.0,91,0.02,,-RA,0.50,VWS V14.01,2013-04-23 23:13:00,
2013-04-23 18:15:00,39.2,36.8,29.89,NW,317,7.0,9.0,91,0.02,,FEW250,0.50,VWS V14.01,2013-04-23 23:15:00,
2013-04-23 18:18:00,39.3,36.9,29.89,NW,311,4.0,8.0,91,0.02,,-RA,0.50,VWS V14.01,2013-04-23 23:18:00,
2013-04-23 18:20:00,39.3,36.9,29.89,NNW,343,4.0,8.0,91,0.02,,FEW250,0.50,VWS V14.01,2013-04-23 23:20:00,
2013-04-23 18:23:00,39.4,37.0,29.89,NNW,336,8.0,9.0,91,0.01,,-RA,0.50,VWS V14.01,2013-04-23 23:23:00,
2013-04-23 18:25:00,39.4,37.0,29.89,NNW,331,6.0,9.0,91,0.01,,FEW250,0.50,VWS V14.01,2013-04-23 23:25:00,
2013-04-23 18:28:00,39.5,36.8,29.89,NNW,332,4.0,10.0,90,0.01,,-RA,0.50,VWS V14.01,2013-04-23 23:28:00,
2013-04-23 18:30:00,39.5,36.8,29.89,NNW,336,6.0,10.0,90,0.01,,FEW250,0.50,VWS V14.01,2013-04-23 23:30:00,
2013-04-23 18:33:00,39.5,36.8,29.89,NNW,341,7.0,10.0,90,0.01,,-RA,0.50,VWS V14.01,2013-04-23 23:33:00,
2013-04-23 18:35:00,39.6,36.9,29.89,North,9,9.0,10.0,90,0.01,,FEW250,0.50,VWS V14.01,2013-04-23 23:35:00,
2013-04-23 18:39:00,39.6,36.9,29.89,NNW,329,4.0,8.0,90,0.01,,-RA,0.50,VWS V14.01,2013-04-23 23:39:00,
2013-04-23 18:40:00,39.6,36.9,29.89,NNW,329,4.0,8.0,90,0.01,,FEW250,0.50,VWS V14.01,2013-04-23 23:40:00,
2013-04-23 18:44:00,39.6,36.9,29.89,NNW,332,0.0,10.0,90,0.01,,-RA,0.50,VWS V14.01,2013-04-23 23:44:00,
2013-04-23 18:45:00,39.6,36.9,29.89,NNW,332,0.0,10.0,90,0.01,,FEW250,0.50,VWS V14.01,2013-04-23 23:45:00,
2013-04-23 18:49:00,39.6,36.6,29.89,NW,317,4.0,10.0,89,0.01,,-RA,0.50,VWS V14.01,2013-04-23 23:49:00,
2013-04-23 18:50:00,39.6,36.6,29.89,NW,324,5.0,10.0,89,0.01,,FEW250,0.50,VWS V14.01,2013-04-23 23:50:00,
2013-04-23 18:54:00,39.7,36.7,29.89,NNW,333,0.0,5.0,89,0.01,,-RA,0.50,VWS V14.01,2013-04-23 23:54:00,
2013-04-23 18:55:00,39.7,36.7,29.89,NNW,333,0.0,5.0,89,0.01,,FEW250,0.50,VWS V14.01,2013-04-23 23:55:00,
2013-04-23 18:59:00,39.6,36.6,29.89,NNW,336,3.0,6.0,89,0.01,,-RA,0.50,VWS V14.01,2013-04-23 23:59:00,
2013-04-23 19:00:00,39.6,36.6,29.89,NNW,336,3.0,6.0,89,0.01,,FEW250,0.50,VWS V14.01,2013-04-24 00:00:00,
2013-04-23 19:04:00,39.6,36.6,29.89,NW,325,0.0,7.0,89,0.01,,-RA,0.50,VWS V14.01,2013-04-24 00:04:00,
2013-04-23 19:05:00,39.6,36.6,29.89,NW,325,0.0,7.0,89,0.01,,FEW250,0.50,VWS V14.01,2013-04-24 00:05:00,
2013-04-23 19:09:00,39.5,36.5,29.89,North,351,0.0,9.0,89,0.01,,-RA,0.50,VWS V14.01,2013-04-24 00:09:00,
2013-04-23 19:10:00,39.5,36.5,29.89,North,350,0.0,9.0,89,0.01,,FEW250,0.50,VWS V14.01,2013-04-24 00:10:00,
2013-04-23 19:14:00,39.5,36.5,29.89,NNW,348,0.0,1.0,89,0.00,,-RA,0.50,VWS V14.01,2013-04-24 00:14:00,
2013-04-23 19:15:00,39.5,36.5,29.89,NNW,348,0.0,1.0,89,0.01,,FEW250,0.50,VWS V14.01,2013-04-24 00:15:00,
2013-04-23 19:19:00,39.5,36.8,29.90,NNW,344,1.0,5.0,90,0.00,,-RA,0.50,VWS V14.01,2013-04-24 00:19:00,
2013-04-23 19:20:00,39.5,36.8,29.90,NNW,344,0.0,6.0,90,0.00,,FEW250,0.50,VWS V14.01,2013-04-24 00:20:00,
2013-04-23 19:24:00,39.6,36.9,29.90,NNW,343,0.0,1.0,90,0.00,,-RA,0.50,VWS V14.01,2013-04-24 00:24:00,
2013-04-23 19:25:00,39.6,36.9,29.90,NNW,342,0.0,1.0,90,0.00,,FEW250,0.50,VWS V14.01,2013-04-24 00:25:00,
2013-04-23 19:29:00,39.7,37.0,29.90,NNW,344,0.0,1.0,90,0.00,,-RA,0.50,VWS V14.01,2013-04-24 00:29:00,
2013-04-23 19:30:00,39.6,36.9,29.90,NNW,344,0.0,1.0,90,0.00,,FEW250,0.50,VWS V14.01,2013-04-24 00:30:00,
2013-04-23 19:34:00,39.7,37.0,29.91,NNW,343,0.0,0.0,90,0.01,,-RA,0.51,VWS V14.01,2013-04-24 00:34:00,
2013-04-23 19:35:00,39.6,36.9,29.91,NNW,343,0.0,0.0,90,0.01,,FEW250,0.51,VWS V14.01,2013-04-24 00:35:00,
2013-04-23 19:39:00,39.7,37.0,29.91,NNW,343,0.0,0.0,90,0.01,,-RA,0.51,VWS V14.01,2013-04-24 00:39:00,
2013-04-23 19:40:00,39.7,37.0,29.91,NNW,343,0.0,0.0,90,0.01,,FEW250,0.51,VWS V14.01,2013-04-24 00:40:00,
2013-04-23 19:44:00,39.7,37.0,29.91,NNW,342,0.0,0.0,90,0.01,,-RA,0.51,VWS V14.01,2013-04-24 00:44:00,
2013-04-23 19:45:00,39.7,37.0,29.91,NNW,342,0.0,0.0,90,0.01,,FEW250,0.51,VWS V14.01,2013-04-24 00:45:00,
2013-04-23 19:50:00,39.6,36.9,29.91,NNW,343,0.0,0.0,90,0.01,,-RA,0.51,VWS V14.01,2013-04-24 00:50:00,
2013-04-23 19:55:00,39.5,36.8,29.91,NNW,342,0.0,0.0,90,0.01,,-RA,0.51,VWS V14.01,2013-04-24 00:55:00,
2013-04-23 20:00:00,39.4,37.0,29.91,NNW,342,0.0,0.0,91,0.01,,-RA,0.51,VWS V14.01,2013-04-24 01:00:00,
2013-04-23 20:05:00,39.3,36.9,29.91,NNW,343,0.0,0.0,91,0.01,,-RA,0.51,VWS V14.01,2013-04-24 01:05:00,
2013-04-23 20:10:00,39.3,36.6,29.91,NNW,343,0.0,0.0,90,0.01,,-RA,0.51,VWS V14.01,2013-04-24 01:10:00,
2013-04-23 20:15:00,39.3,36.9,29.91,NNW,342,0.0,0.0,91,0.01,,-RA,0.51,VWS V14.01,2013-04-24 01:15:00,
2013-04-23 20:20:00,39.3,36.9,29.91,East,84,0.0,0.0,91,0.01,,-RA,0.51,VWS V14.01,2013-04-24 01:20:00,
2013-04-23 20:25:00,38.6,36.2,29.91,ENE,67,1.0,2.0,91,0.01,,-RA,0.51,VWS V14.01,2013-04-24 01:25:00,
2013-04-23 20:30:00,38.2,36.1,29.92,ENE,69,0.0,1.0,92,0.02,,-RA,0.52,VWS V14.01,2013-04-24 01:30:00,
2013-04-23 20:35:00,38.0,36.2,29.92,ENE,67,0.0,1.0,93,0.01,,-RA,0.52,VWS V14.01,2013-04-24 01:35:00,
2013-04-23 20:40:00,37.9,36.1,29.92,ENE,66,0.0,0.0,93,0.01,,-RA,0.52,VWS V14.01,2013-04-24 01:40:00,
2013-04-23 20:45:00,37.8,36.2,29.91,NE,55,0.0,0.0,94,0.01,,-RA,0.52,VWS V14.01,2013-04-24 01:45:00,
2013-04-23 20:50:00,37.8,36.2,29.92,NE,55,0.0,0.0,94,0.01,,-RA,0.52,VWS V14.01,2013-04-24 01:50:00,
2013-04-23 20:55:00,37.8,36.2,29.92,NE,54,0.0,0.0,94,0.01,,-RA,0.52,VWS V14.01,2013-04-24 01:55:00,
2013-04-23 21:00:00,37.9,36.3,29.92,NE,54,0.0,0.0,94,0.01,,FEW250,0.52,VWS V14.01,2013-04-24 02:00:00,
2013-04-23 21:01:00,37.9,36.3,29.92,NE,54,0.0,0.0,94,0.01,,-RA,0.52,VWS V14.01,2013-04-24 02:01:00,
2013-04-23 21:05:00,37.9,36.3,29.92,NE,54,0.0,0.0,94,0.01,,FEW250,0.52,VWS V14.01,2013-04-24 02:05:00,
2013-04-23 21:06:00,37.9,36.3,29.91,NE,55,0.0,0.0,94,0.01,,-RA,0.52,VWS V14.01,2013-04-24 02:06:00,
2013-04-23 21:10:00,37.9,36.3,29.92,NE,54,0.0,0.0,94,0.01,,FEW250,0.52,VWS V14.01,2013-04-24 02:10:00,
2013-04-23 21:11:00,37.9,36.6,29.92,NE,54,0.0,0.0,95,0.01,,-RA,0.52,VWS V14.01,2013-04-24 02:11:00,
2013-04-23 21:15:00,37.9,36.6,29.92,NE,54,0.0,0.0,95,0.01,,FEW250,0.52,VWS V14.01,2013-04-24 02:15:00,
2013-04-23 21:17:00,38.0,36.7,29.92,NE,55,0.0,0.0,95,0.01,,-RA,0.52,VWS V14.01,2013-04-24 02:17:00,
2013-04-23 21:20:00,38.0,36.7,29.92,NE,54,0.0,0.0,95,0.01,,FEW250,0.52,VWS V14.01,2013-04-24 02:20:00,
2013-04-23 21:22:00,38.0,36.7,29.92,NE,54,0.0,0.0,95,0.01,,-RA,0.52,VWS V14.01,2013-04-24 02:22:00,
2013-04-23 21:25:00,38.1,36.8,29.92,NE,54,0.0,0.0,95,0.01,,FEW250,0.52,VWS V14.01,2013-04-24 02:25:00,
2013-04-23 21:29:00,38.3,37.0,29.91,NE,54,0.0,0.0,95,0.01,,-RA,0.52,VWS V14.01,2013-04-24 02:29:00,
2013-04-23 21:30:00,38.3,37.0,29.91,NE,54,0.0,0.0,95,0.01,,FEW250,0.52,VWS V14.01,2013-04-24 02:30:00,
2013-04-23 21:34:00,38.3,37.0,29.92,NE,54,0.0,0.0,95,0.01,,-RA,0.52,VWS V14.01,2013-04-24 02:34:00,
2013-04-23 21:35:00,38.3,37.0,29.92,NE,54,0.0,0.0,95,0.01,,FEW250,0.52,VWS V14.01,2013-04-24 02:35:00,
2013-04-23 21:40:00,38.3,37.0,29.92,NE,53,0.0,0.0,95,0.00,,-RA,0.52,VWS V14.01,2013-04-24 02:40:00,
2013-04-23 21:45:00,38.3,37.0,29.91,NE,54,0.0,0.0,95,0.00,,-RA,0.52,VWS V14.01,2013-04-24 02:45:00,
2013-04-23 21:50:00,38.3,37.0,29.91,North,355,0.0,1.0,95,0.00,,-RA,0.52,VWS V14.01,2013-04-24 02:50:00,
2013-04-23 21:55:00,38.3,37.0,29.91,NNE,17,1.0,2.0,95,0.00,,FEW250,0.52,VWS V14.01,2013-04-24 02:55:00,
2013-04-23 21:56:00,38.2,36.9,29.91,NNE,19,0.0,2.0,95,0.00,,-RA,0.52,VWS V14.01,2013-04-24 02:56:00,
2013-04-23 22:00:00,38.1,36.8,29.91,NNE,17,0.0,2.0,95,0.00,,FEW250,0.52,VWS V14.01,2013-04-24 03:00:00,
2013-04-23 22:01:00,38.1,36.8,29.91,NNE,17,0.0,0.0,95,0.00,,OVC043,0.52,VWS V14.01,2013-04-24 03:01:00,
2013-04-23 22:05:00,38.0,36.7,29.91,NNE,17,0.0,0.0,95,0.00,,FEW250,0.52,VWS V14.01,2013-04-24 03:05:00,
2013-04-23 22:06:00,38.0,36.7,29.91,NNE,19,0.0,0.0,95,0.00,,OVC043,0.52,VWS V14.01,2013-04-24 03:06:00,
2013-04-23 22:10:00,38.0,36.7,29.90,NNE,17,0.0,0.0,95,0.00,,FEW250,0.52,VWS V14.01,2013-04-24 03:10:00,
2013-04-23 22:11:00,38.0,36.7,29.90,NNE,18,0.0,0.0,95,0.00,,OVC043,0.52,VWS V14.01,2013-04-24 03:11:00,
2013-04-23 22:15:00,38.0,36.7,29.90,NNE,17,0.0,0.0,95,0.00,,FEW250,0.52,VWS V14.01,2013-04-24 03:15:00,
2013-04-23 22:16:00,38.0,36.7,29.90,NNE,17,0.0,0.0,95,0.00,,OVC043,0.52,VWS V14.01,2013-04-24 03:16:00,
2013-04-23 22:20:00,38.0,36.7,29.90,NNE,17,0.0,0.0,95,0.00,,FEW250,0.52,VWS V14.01,2013-04-24 03:20:00,
2013-04-23 22:22:00,38.0,36.7,29.90,NNE,17,0.0,0.0,95,0.00,,OVC043,0.52,VWS V14.01,2013-04-24 03:22:00,
2013-04-23 22:25:00,38.0,36.7,29.90,NNE,17,0.0,0.0,95,0.00,,FEW250,0.52,VWS V14.01,2013-04-24 03:25:00,
2013-04-23 22:27:00,38.0,36.7,29.90,NNE,17,0.0,0.0,95,0.00,,OVC043,0.52,VWS V14.01,2013-04-24 03:27:00,
2013-04-23 22:30:00,38.0,36.7,29.90,NNE,17,0.0,0.0,95,0.00,,FEW250,0.52,VWS V14.01,2013-04-24 03:30:00,
2013-04-23 22:32:00,38.1,36.8,29.90,NNE,17,0.0,0.0,95,0.00,,-RA,0.52,VWS V14.01,2013-04-24 03:32:00,
2013-04-23 22:35:00,38.1,36.8,29.90,NNE,17,0.0,0.0,95,0.00,,FEW250,0.52,VWS V14.01,2013-04-24 03:35:00,
2013-04-23 22:38:00,38.2,36.9,29.90,NNE,17,0.0,0.0,95,0.00,,-RA,0.52,VWS V14.01,2013-04-24 03:38:00,
2013-04-23 22:40:00,38.2,36.9,29.90,NNE,16,0.0,0.0,95,0.00,,FEW250,0.52,VWS V14.01,2013-04-24 03:40:00,
2013-04-23 22:43:00,38.4,37.1,29.90,NNE,15,0.0,0.0,95,0.00,,-RA,0.52,VWS V14.01,2013-04-24 03:43:00,
2013-04-23 22:45:00,38.4,37.1,29.90,NNE,15,0.0,0.0,95,0.00,,FEW250,0.52,VWS V14.01,2013-04-24 03:45:00,
2013-04-23 22:49:00,38.6,37.3,29.90,NW,321,0.0,0.0,95,0.00,,-RA,0.52,VWS V14.01,2013-04-24 03:49:00,
2013-04-23 22:50:00,38.6,37.3,29.90,NW,321,0.0,0.0,95,0.00,,FEW250,0.52,VWS V14.01,2013-04-24 03:50:00,
2013-04-23 22:54:00,38.6,37.3,29.90,NW,320,0.0,0.0,95,0.00,,-RA,0.52,VWS V14.01,2013-04-24 03:54:00,
2013-04-23 22:55:00,38.6,37.3,29.90,NW,320,0.0,0.0,95,0.00,,FEW250,0.52,VWS V14.01,2013-04-24 03:55:00,
2013-04-23 22:59:00,38.6,37.3,29.90,NW,308,0.0,1.0,95,0.00,,-RA,0.52,VWS V14.01,2013-04-24 03:59:00,
2013-04-23 23:00:00,38.6,37.3,29.90,NW,308,0.0,1.0,95,0.00,,SCT250,0.52,VWS V14.01,2013-04-24 04:00:00,
2013-04-23 23:01:00,38.5,36.9,29.90,NNW,332,0.0,2.0,94,0.00,,-RA,0.52,VWS V14.01,2013-04-24 04:01:00,
2013-04-23 23:02:00,38.6,37.0,29.90,NNW,332,0.0,2.0,94,0.00,,-RA,0.52,VWS V14.01,2013-04-24 04:02:00,
2013-04-23 23:03:00,38.5,36.9,29.90,NNW,332,0.0,2.0,94,0.00,,-RA,0.52,VWS V14.01,2013-04-24 04:03:00,
2013-04-23 23:05:00,38.6,37.0,29.90,NNW,332,0.0,2.0,94,0.00,,SCT250,0.52,VWS V14.01,2013-04-24 04:05:00,
2013-04-23 23:09:00,38.6,36.8,29.90,NNW,332,0.0,0.0,93,0.00,,-RA,0.52,VWS V14.01,2013-04-24 04:09:00,
2013-04-23 23:10:00,38.6,36.8,29.90,NNW,332,0.0,0.0,93,0.00,,-RA,0.52,VWS V14.01,2013-04-24 04:10:00,
2013-04-23 23:13:00,38.6,36.8,29.90,NNW,332,0.0,0.0,93,0.00,,-RA,0.52,VWS V14.01,2013-04-24 04:13:00,
2013-04-23 23:15:00,38.6,36.8,29.90,NNW,332,0.0,0.0,93,0.00,,FEW250,0.52,VWS V14.01,2013-04-24 04:15:00,
2013-04-23 23:18:00,38.4,36.6,29.90,North,5,0.0,0.0,93,0.00,,-RA,0.52,VWS V14.01,2013-04-24 04:18:00,
2013-04-23 23:20:00,38.4,36.3,29.90,North,9,0.0,0.0,92,0.00,,FEW250,0.52,VWS V14.01,2013-04-24 04:20:00,
2013-04-23 23:23:00,38.4,36.3,29.90,NNW,339,0.0,0.0,92,0.00,,-RA,0.52,VWS V14.01,2013-04-24 04:23:00,
2013-04-23 23:25:00,38.4,36.3,29.90,NNW,340,0.0,0.0,92,0.00,,FEW250,0.52,VWS V14.01,2013-04-24 04:25:00,
2013-04-23 23:28:00,38.5,36.1,29.90,NW,317,0.0,0.0,91,0.00,,-RA,0.52,VWS V14.01,2013-04-24 04:28:00,
2013-04-23 23:30:00,38.6,36.2,29.90,NW,317,0.0,0.0,91,0.00,,FEW250,0.52,VWS V14.01,2013-04-24 04:30:00,
2013-04-23 23:33:00,38.6,35.9,29.90,NNW,345,2.0,2.0,90,0.00,,-RA,0.52,VWS V14.01,2013-04-24 04:33:00,
2013-04-23 23:35:00,38.7,35.7,29.90,North,355,1.0,2.0,89,0.00,,FEW250,0.52,VWS V14.01,2013-04-24 04:35:00,
2013-04-23 23:38:00,38.7,35.7,29.90,NNW,333,0.0,2.0,89,0.00,,-RA,0.52,VWS V14.01,2013-04-24 04:38:00,
2013-04-23 23:40:00,38.7,35.7,29.90,NNW,333,0.0,2.0,89,0.00,,FEW250,0.52,VWS V14.01,2013-04-24 04:40:00,
2013-04-23 23:43:00,38.7,35.5,29.90,NNW,332,0.0,1.0,88,0.00,,-RA,0.52,VWS V14.01,2013-04-24 04:43:00,
2013-04-23 23:45:00,38.7,35.5,29.90,NNW,332,0.0,1.0,88,0.00,,FEW250,0.52,VWS V14.01,2013-04-24 04:45:00,
2013-04-23 23:48:00,38.8,35.6,29.90,NNW,331,0.0,0.0,88,0.00,,-RA,0.52,VWS V14.01,2013-04-24 04:48:00,
2013-04-23 23:50:00,38.7,35.5,29.90,NNW,331,0.0,0.0,88,0.00,,FEW250,0.52,VWS V14.01,2013-04-24 04:50:00,
2013-04-23 23:53:00,38.8,35.6,29.90,NNW,333,1.0,3.0,88,0.00,,-RA,0.52,VWS V14.01,2013-04-24 04:53:00,
2013-04-23 23:55:00,38.8,35.6,29.90,NNW,333,0.0,3.0,88,0.00,,FEW250,0.52,VWS V14.01,2013-04-24 04:55:00,
2013-04-23 23:58:00,38.8,35.3,29.91,NW,317,7.0,7.0,87,0.00,,-RA,0.52,VWS V14.01,2013-04-24 04:58:00,